• Join FlightAware (Why Join?)
  • Login
  • US Flag 
10:02AM EDT


 

Airport Tracker/Info


-or-


 

Live Flight TrackerFlight Track Log ✈ AMF701 ✈ 24-Aug-2013 ✈ KBED - KPBG

Flight Track Log - Related Links

Times and Time Zones

All times are in EDT time to prevent confusion due to time zone crossing. See the AMF701 flight status page for this flight to view local times or setup timezone preferences in your user account.

Time Position Orientation Groundspeed Altitude Reporting Facility
EDT Latitude Longitude Course Direction KTS MPH feet Rate Location/Type
05:47PM 42.5000 -71.3000 345° North 141 162 1,900  Level KA90
05:48PM 42.5333 -71.3333 324° Northwest 152 175 3,500 1,560 Climbing KA90
05:49PM 42.5667 -71.3833 312° West 157 181 5,200 1,440 Climbing KA90
05:50PM 42.6000 -71.4000 340° North 155 178 6,600 1,260 Climbing KA90
05:51PM 42.6333 -71.4500 312° West 159 183 7,800 900 Climbing KA90
05:52PM 42.6833 -71.4667 346° North 168 193 8,500 300 Climbing KA90
05:53PM 42.7333 -71.4833 346° North 181 208 8,500  Level KA90
05:54PM 42.7833 -71.5000 346° North 179 206 8,500  Level KA90
05:55PM 42.8167 -71.5333 324° Northwest 177 204 8,500  Level KA90
05:56PM 42.8667 -71.5833 324° Northwest 178 205 8,500  Level KA90
05:57PM 42.9000 -71.6167 324° Northwest 182 209 8,500  Level KA90
05:58PM 42.9500 -71.6667 324° Northwest 186 214 8,500  Level KA90
05:59PM 42.9833 -71.7000 324° Northwest 187 215 8,500  Level KA90
06:00PM 43.0333 -71.7500 324° Northwest 188 216 8,500  Level KA90
06:01PM 43.0667 -71.7833 324° Northwest 187 215 8,500  Level KA90
06:02PM 43.1267 -71.8381 326° Northwest 187 215 8,500  Level Boston Center
06:03PM 43.1689 -71.8783 325° Northwest 186 214 8,500  Level Boston Center
06:04PM 43.2106 -71.9200 324° Northwest 186 214 8,500  Level Boston Center
06:05PM 43.2550 -71.9636 324° Northwest 184 212 8,500  Level Boston Center
06:06PM 43.2972 -72.0042 325° Northwest 185 213 8,500  Level Boston Center
06:07PM 43.3389 -72.0456 324° Northwest 184 212 8,500  Level Boston Center
06:08PM 43.3844 -72.0906 324° Northwest 188 216 8,500  Level Boston Center
06:09PM 43.4267 -72.1308 325° Northwest 191 220 8,500  Level Boston Center
06:10PM 43.4678 -72.1722 324° Northwest 186 214 8,500  Level Boston Center
06:11PM 43.5122 -72.2100 328° Northwest 187 215 8,500  Level Boston Center
06:12PM 43.5550 -72.2503 326° Northwest 187 215 8,500  Level Boston Center
06:13PM 43.5964 -72.2917 324° Northwest 185 213 8,500  Level Boston Center
06:14PM 43.6406 -72.3325 326° Northwest 187 215 8,500  Level Boston Center
06:15PM 43.6825 -72.3744 324° Northwest 188 216 8,500  Level Boston Center
06:16PM 43.7333 -72.4225 326° Northwest 186 214 8,500  Level Boston Center
06:17PM 43.7750 -72.4628 325° Northwest 183 211 8,500  Level Boston Center
06:18PM 43.8158 -72.5047 323° Northwest 182 209 8,500  Level Boston Center
06:19PM 43.8581 -72.5439 326° Northwest 182 209 8,500  Level Boston Center
06:21PM 43.8992 -72.5844 325° Northwest 182 209 8,500  Level Boston Center
06:22PM 43.9444 -72.6306 324° Northwest 186 214 8,600  Climbing Boston Center
06:23PM 43.9900 -72.6756 325° Northwest 187 215 8,500 -60 Descending Boston Center
06:24PM 44.0314 -72.7161 325° Northwest 185 213 8,500  Level Boston Center
06:25PM 44.0769 -72.7611 325° Northwest 187 215 8,500  Level Boston Center
06:26PM 44.1189 -72.8017 325° Northwest 185 213 8,500 -180 Level Boston Center
06:27PM 44.1603 -72.8422 325° Northwest 185 213 8,200 -540 Descending Boston Center
06:28PM 44.2058 -72.8867 325° Northwest 186 214 7,500 -720 Descending Boston Center
06:29PM 44.2469 -72.9281 324° Northwest 185 213 6,800 -600 Descending Boston Center
06:30PM 44.2933 -72.9722 326° Northwest 187 215 6,300 -540 Descending Boston Center
06:31PM 44.3336 -73.0139 324° Northwest 184 212 5,800 -480 Descending Boston Center
06:32PM 44.3742 -73.0536 325° Northwest 183 211 5,300 -540 Descending Boston Center
06:33PM 44.4144 -73.1036 318° Northwest 182 209 4,700 -540 Descending Boston Center
06:34PM 44.4561 -73.1394 328° Northwest 183 211 4,300 -540 Descending Boston Center
06:35PM 44.4944 -73.1817 322° Northwest 187 215 3,700 -660 Descending Boston Center
06:36PM 44.5275 -73.2456 306° West 188 216 3,000 -720 Descending Boston Center
06:37PM 44.5581 -73.3036 306° West 188 216 2,300 -420 Descending Boston Center
06:38PM 44.5842 -73.3531 307° West 188 216 2,200 -120 Descending Boston Center